sensor_id;sensor_type;location;lat;lon;timestamp;pressure;altitude;pressure_sealevel;temperature;humidity
64644;BME280;51056;50.330;7.914;2022-12-18T07:56:25;102167.25;;;-9.92;68.23
64644;BME280;51056;50.330;7.914;2022-12-18T07:59:29;102159.63;;;-10.51;71.30
64644;BME280;51056;50.330;7.914;2022-12-18T08:02:32;102147.22;;;-9.57;67.68
64644;BME280;51056;50.330;7.914;2022-12-18T08:05:35;102150.94;;;-9.36;66.50
64644;BME280;51056;50.330;7.914;2022-12-18T08:08:39;102141.25;;;-9.43;66.43
64644;BME280;51056;50.330;7.914;2022-12-18T08:11:44;102141.97;;;-9.15;66.44
64644;BME280;51056;50.330;7.914;2022-12-18T08:14:48;102149.78;;;-9.26;66.46
64644;BME280;51056;50.330;7.914;2022-12-18T08:17:51;102149.88;;;-9.25;66.32
64644;BME280;51056;50.330;7.914;2022-12-18T08:21:12;102156.19;;;-9.17;65.85
64644;BME280;51056;50.330;7.914;2022-12-18T08:24:16;102149.13;;;-9.22;65.89
64644;BME280;51056;50.330;7.914;2022-12-18T08:27:19;102145.69;;;-9.39;66.44
64644;BME280;51056;50.330;7.914;2022-12-18T08:30:22;102130.44;;;-9.41;66.66
64644;BME280;51056;50.330;7.914;2022-12-18T08:33:26;102115.56;;;-9.34;66.54
64644;BME280;51056;50.330;7.914;2022-12-18T08:36:29;102111.56;;;-9.15;65.47
64644;BME280;51056;50.330;7.914;2022-12-18T08:39:34;102108.88;;;-9.01;65.08
64644;BME280;51056;50.330;7.914;2022-12-18T08:42:40;102099.38;;;-9.05;65.65
64644;BME280;51056;50.330;7.914;2022-12-18T08:46:16;102101.13;;;-9.04;65.68
64644;BME280;51056;50.330;7.914;2022-12-18T08:49:19;102096.38;;;-8.98;65.59
64644;BME280;51056;50.330;7.914;2022-12-18T08:52:23;102089.41;;;-9.02;65.62
64644;BME280;51056;50.330;7.914;2022-12-18T08:55:26;102097.22;;;-8.98;66.27
64644;BME280;51056;50.330;7.914;2022-12-18T08:58:29;102097.00;;;-9.02;66.14
64644;BME280;51056;50.330;7.914;2022-12-18T09:01:34;102101.91;;;-8.89;65.91
64644;BME280;51056;50.330;7.914;2022-12-18T09:05:04;102122.03;;;-9.08;65.90
64644;BME280;51056;50.330;7.914;2022-12-18T09:08:37;102122.34;;;-8.86;66.15
64644;BME280;51056;50.330;7.914;2022-12-18T09:11:41;102121.06;;;-8.94;66.28
64644;BME280;51056;50.330;7.914;2022-12-18T09:14:44;102109.84;;;-8.67;65.94
64644;BME280;51056;50.330;7.914;2022-12-18T09:17:48;102121.22;;;-8.75;67.03
64644;BME280;51056;50.330;7.914;2022-12-18T09:20:52;102129.00;;;-8.55;65.62
64644;BME280;51056;50.330;7.914;2022-12-18T09:23:56;102129.66;;;-8.76;66.49
64644;BME280;51056;50.330;7.914;2022-12-18T09:27:02;102122.81;;;-8.44;65.58
64644;BME280;51056;50.330;7.914;2022-12-18T09:30:07;102111.81;;;-8.45;66.31
64644;BME280;51056;50.330;7.914;2022-12-18T09:33:10;102097.75;;;-8.38;66.00
64644;BME280;51056;50.330;7.914;2022-12-18T09:36:15;102102.38;;;-8.47;67.52
64644;BME280;51056;50.330;7.914;2022-12-18T09:39:19;102105.75;;;-8.12;66.74
64644;BME280;51056;50.330;7.914;2022-12-18T09:42:23;102118.19;;;-8.17;67.27
64644;BME280;51056;50.330;7.914;2022-12-18T09:45:27;102111.25;;;-8.21;67.45
64644;BME280;51056;50.330;7.914;2022-12-18T09:48:41;102110.13;;;-8.10;67.62
64644;BME280;51056;50.330;7.914;2022-12-18T09:52:03;102113.31;;;-7.96;67.91
64644;BME280;51056;50.330;7.914;2022-12-18T09:55:25;102107.50;;;-7.76;67.55
64644;BME280;51056;50.330;7.914;2022-12-18T09:58:37;102096.34;;;-7.61;66.94
64644;BME280;51056;50.330;7.914;2022-12-18T10:01:43;102080.28;;;-7.60;67.02
64644;BME280;51056;50.330;7.914;2022-12-18T10:05:04;102087.47;;;-7.52;67.71
64644;BME280;51056;50.330;7.914;2022-12-18T10:11:21;102076.75;;;-7.46;68.53
64644;BME280;51056;50.330;7.914;2022-12-18T10:14:54;102076.75;;;-7.46;69.04
64644;BME280;51056;50.330;7.914;2022-12-18T10:21:22;102070.63;;;-7.12;68.96
64644;BME280;51056;50.330;7.914;2022-12-18T10:24:35;102062.59;;;-7.02;68.38
64644;BME280;51056;50.330;7.914;2022-12-18T10:27:41;102057.16;;;-6.71;68.20
64644;BME280;51056;50.330;7.914;2022-12-18T10:30:45;102059.19;;;-7.03;69.82
64644;BME280;51056;50.330;7.914;2022-12-18T10:33:49;102044.69;;;-6.86;69.43
64644;BME280;51056;50.330;7.914;2022-12-18T10:36:52;102034.94;;;-6.75;69.22
64644;BME280;51056;50.330;7.914;2022-12-18T10:43:13;102045.53;;;-6.45;70.30
64644;BME280;51056;50.330;7.914;2022-12-18T10:46:20;102045.91;;;-6.36;70.15
64644;BME280;51056;50.330;7.914;2022-12-18T10:49:27;102039.59;;;-6.24;69.72
64644;BME280;51056;50.330;7.914;2022-12-18T10:52:32;102035.25;;;-6.27;70.75
64644;BME280;51056;50.330;7.914;2022-12-18T10:55:38;102030.38;;;-6.00;69.91
64644;BME280;51056;50.330;7.914;2022-12-18T10:58:56;102025.59;;;-5.91;70.06
64644;BME280;51056;50.330;7.914;2022-12-18T11:02:01;102012.25;;;-6.07;70.55
64644;BME280;51056;50.330;7.914;2022-12-18T11:05:27;102017.97;;;-5.91;71.27
64644;BME280;51056;50.330;7.914;2022-12-18T11:08:33;102021.44;;;-5.89;71.24
64644;BME280;51056;50.330;7.914;2022-12-18T11:11:37;102030.06;;;-5.85;71.18
64644;BME280;51056;50.330;7.914;2022-12-18T11:14:47;102010.78;;;-5.78;71.89
64644;BME280;51056;50.330;7.914;2022-12-18T11:17:51;101998.38;;;-5.47;70.90
64644;BME280;51056;50.330;7.914;2022-12-18T11:21:07;101991.56;;;-5.48;72.46
64644;BME280;51056;50.330;7.914;2022-12-18T11:24:22;101997.56;;;-5.23;71.18
64644;BME280;51056;50.330;7.914;2022-12-18T11:27:29;101991.78;;;-5.18;71.87
64644;BME280;51056;50.330;7.914;2022-12-18T11:30:37;101997.78;;;-4.92;71.59
64644;BME280;51056;50.330;7.914;2022-12-18T11:37:07;101982.59;;;-4.63;71.58
64644;BME280;51056;50.330;7.914;2022-12-18T11:40:30;101992.81;;;-4.63;73.25
64644;BME280;51056;50.330;7.914;2022-12-18T11:44:00;101995.53;;;-4.33;73.28
64644;BME280;51056;50.330;7.914;2022-12-18T11:47:19;101996.16;;;-4.40;74.41
64644;BME280;51056;50.330;7.914;2022-12-18T11:50:51;102002.00;;;-4.42;74.07
64644;BME280;51056;50.330;7.914;2022-12-18T11:53:56;101994.16;;;-4.49;76.18
64644;BME280;51056;50.330;7.914;2022-12-18T12:00:15;101959.88;;;-4.30;76.02
64644;BME280;51056;50.330;7.914;2022-12-18T12:03:39;101969.75;;;-4.13;76.13
64644;BME280;51056;50.330;7.914;2022-12-18T12:07:30;101968.56;;;-3.96;76.19
64644;BME280;51056;50.330;7.914;2022-12-18T12:10:55;101975.25;;;-3.71;75.42
64644;BME280;51056;50.330;7.914;2022-12-18T12:17:36;101965.13;;;-3.68;74.62
64644;BME280;51056;50.330;7.914;2022-12-18T12:30:44;101941.66;;;-3.23;74.01
64644;BME280;51056;50.330;7.914;2022-12-18T12:35:30;101947.94;;;-3.12;73.91
64644;BME280;51056;50.330;7.914;2022-12-18T12:41:28;101960.06;;;-3.05;73.42
64644;BME280;51056;50.330;7.914;2022-12-18T12:44:55;101948.19;;;-3.02;73.79
64644;BME280;51056;50.330;7.914;2022-12-18T12:48:02;101946.44;;;-3.04;74.69
64644;BME280;51056;50.330;7.914;2022-12-18T12:51:25;101954.13;;;-3.04;74.51
64644;BME280;51056;50.330;7.914;2022-12-18T12:54:31;101933.69;;;-3.02;74.35
64644;BME280;51056;50.330;7.914;2022-12-18T12:58:21;101931.53;;;-2.87;73.14
64644;BME280;51056;50.330;7.914;2022-12-18T13:04:33;101927.00;;;-2.62;71.63
64644;BME280;51056;50.330;7.914;2022-12-18T13:07:49;101916.69;;;-2.65;70.92
64644;BME280;51056;50.330;7.914;2022-12-18T13:10:54;101905.03;;;-2.89;71.40
64644;BME280;51056;50.330;7.914;2022-12-18T13:14:37;101912.44;;;-2.99;70.90
64644;BME280;51056;50.330;7.914;2022-12-18T13:17:40;101904.22;;;-3.19;71.25
64644;BME280;51056;50.330;7.914;2022-12-18T13:24:21;101916.47;;;-3.09;71.07
64644;BME280;51056;50.330;7.914;2022-12-18T13:30:50;101918.09;;;-2.78;70.93
64644;BME280;51056;50.330;7.914;2022-12-18T13:34:25;101917.44;;;-2.71;71.25
64644;BME280;51056;50.330;7.914;2022-12-18T13:43:51;101917.66;;;-2.60;72.64
64644;BME280;51056;50.330;7.914;2022-12-18T13:46:56;101905.63;;;-2.64;72.38
64644;BME280;51056;50.330;7.914;2022-12-18T13:50:01;101894.72;;;-2.55;71.66
64644;BME280;51056;50.330;7.914;2022-12-18T13:53:05;101899.44;;;-2.74;72.03
64644;BME280;51056;50.330;7.914;2022-12-18T13:56:14;101902.78;;;-2.76;71.86
64644;BME280;51056;50.330;7.914;2022-12-18T13:59:25;101900.97;;;-2.81;72.09
64644;BME280;51056;50.330;7.914;2022-12-18T14:02:29;101900.28;;;-2.73;71.38
64644;BME280;51056;50.330;7.914;2022-12-18T14:05:35;101903.38;;;-2.87;71.85
64644;BME280;51056;50.330;7.914;2022-12-18T14:08:40;101906.03;;;-2.82;71.53
64644;BME280;51056;50.330;7.914;2022-12-18T14:11:49;101915.44;;;-2.81;71.65
64644;BME280;51056;50.330;7.914;2022-12-18T14:21:53;101920.28;;;-2.93;72.26
64644;BME280;51056;50.330;7.914;2022-12-18T14:28:16;101923.53;;;-2.99;72.34
64644;BME280;51056;50.330;7.914;2022-12-18T14:31:22;101919.75;;;-2.80;71.61
64644;BME280;51056;50.330;7.914;2022-12-18T14:34:27;101924.56;;;-2.92;71.91
64644;BME280;51056;50.330;7.914;2022-12-18T14:37:33;101910.69;;;-3.00;72.25
64644;BME280;51056;50.330;7.914;2022-12-18T14:44:37;101913.94;;;-3.08;72.69
64644;BME280;51056;50.330;7.914;2022-12-18T14:47:45;101914.09;;;-3.01;72.61
64644;BME280;51056;50.330;7.914;2022-12-18T14:51:01;101897.16;;;-2.96;72.60
64644;BME280;51056;50.330;7.914;2022-12-18T14:54:15;101910.03;;;-2.93;72.57
64644;BME280;51056;50.330;7.914;2022-12-18T14:57:32;101910.63;;;-3.04;72.79
64644;BME280;51056;50.330;7.914;2022-12-18T15:00:41;101909.41;;;-3.18;73.93
64644;BME280;51056;50.330;7.914;2022-12-18T15:03:47;101905.34;;;-3.10;73.79
64644;BME280;51056;50.330;7.914;2022-12-18T15:07:07;101907.53;;;-3.23;73.53
64644;BME280;51056;50.330;7.914;2022-12-18T15:10:15;101896.13;;;-3.36;73.24
64644;BME280;51056;50.330;7.914;2022-12-18T15:13:23;101907.59;;;-3.54;74.27
64644;BME280;51056;50.330;7.914;2022-12-18T15:16:28;101903.69;;;-3.41;73.15
64644;BME280;51056;50.330;7.914;2022-12-18T15:19:38;101914.94;;;-3.34;73.66
64644;BME280;51056;50.330;7.914;2022-12-18T15:27:04;101900.22;;;-3.43;72.90
64644;BME280;51056;50.330;7.914;2022-12-18T15:30:23;101907.78;;;-3.47;73.37
64644;BME280;51056;50.330;7.914;2022-12-18T15:33:34;101892.63;;;-3.40;73.17
64644;BME280;51056;50.330;7.914;2022-12-18T15:36:40;101892.44;;;-3.47;73.65
64644;BME280;51056;50.330;7.914;2022-12-18T15:39:48;101893.28;;;-3.47;74.00
64644;BME280;51056;50.330;7.914;2022-12-18T15:42:54;101900.41;;;-3.67;74.12
64644;BME280;51056;50.330;7.914;2022-12-18T15:46:18;101890.03;;;-3.41;73.70
64644;BME280;51056;50.330;7.914;2022-12-18T15:49:22;101890.09;;;-3.38;73.56
64644;BME280;51056;50.330;7.914;2022-12-18T15:52:26;101899.59;;;-3.66;74.46
64644;BME280;51056;50.330;7.914;2022-12-18T15:55:29;101901.22;;;-3.68;74.44
64644;BME280;51056;50.330;7.914;2022-12-18T15:58:52;101903.94;;;-3.63;74.58
64644;BME280;51056;50.330;7.914;2022-12-18T16:01:56;101907.50;;;-3.57;73.93
64644;BME280;51056;50.330;7.914;2022-12-18T16:05:00;101909.03;;;-3.63;74.63
64644;BME280;51056;50.330;7.914;2022-12-18T16:08:04;101900.66;;;-3.58;74.71
64644;BME280;51056;50.330;7.914;2022-12-18T16:11:31;101897.22;;;-3.58;74.24
64644;BME280;51056;50.330;7.914;2022-12-18T16:14:56;101896.09;;;-3.69;74.82
64644;BME280;51056;50.330;7.914;2022-12-18T16:37:27;101893.81;;;-3.59;74.93
64644;BME280;51056;50.330;7.914;2022-12-18T16:40:31;101894.06;;;-3.49;74.84
64644;BME280;51056;50.330;7.914;2022-12-18T16:43:57;101900.81;;;-3.52;74.83
64644;BME280;51056;50.330;7.914;2022-12-18T16:47:00;101892.19;;;-3.57;74.91
64644;BME280;51056;50.330;7.914;2022-12-18T16:50:05;101890.47;;;-3.56;74.66
64644;BME280;51056;50.330;7.914;2022-12-18T16:53:09;101878.31;;;-3.65;75.42
64644;BME280;51056;50.330;7.914;2022-12-18T16:56:12;101871.31;;;-3.70;75.74
64644;BME280;51056;50.330;7.914;2022-12-18T16:59:16;101871.72;;;-3.57;75.95
64644;BME280;51056;50.330;7.914;2022-12-18T17:02:24;101864.38;;;-3.44;75.12
64644;BME280;51056;50.330;7.914;2022-12-18T17:05:28;101863.38;;;-3.49;75.27
64644;BME280;51056;50.330;7.914;2022-12-18T17:08:32;101860.38;;;-3.66;75.85
64644;BME280;51056;50.330;7.914;2022-12-18T17:11:36;101856.72;;;-3.76;76.46
64644;BME280;51056;50.330;7.914;2022-12-18T17:14:42;101844.66;;;-3.48;75.55
64644;BME280;51056;50.330;7.914;2022-12-18T17:17:45;101853.16;;;-3.49;75.38
64644;BME280;51056;50.330;7.914;2022-12-18T17:20:49;101855.91;;;-3.42;75.40
64644;BME280;51056;50.330;7.914;2022-12-18T17:23:52;101851.50;;;-3.47;75.12
64644;BME280;51056;50.330;7.914;2022-12-18T17:26:55;101846.25;;;-3.54;75.03
64644;BME280;51056;50.330;7.914;2022-12-18T17:29:58;101846.19;;;-3.55;75.65
64644;BME280;51056;50.330;7.914;2022-12-18T17:33:28;101845.59;;;-3.45;75.19
64644;BME280;51056;50.330;7.914;2022-12-18T17:36:53;101847.03;;;-3.56;76.01
64644;BME280;51056;50.330;7.914;2022-12-18T17:40:01;101848.13;;;-3.46;75.51
64644;BME280;51056;50.330;7.914;2022-12-18T17:43:12;101839.13;;;-3.64;76.44
64644;BME280;51056;50.330;7.914;2022-12-18T17:46:23;101839.44;;;-3.52;76.54
64644;BME280;51056;50.330;7.914;2022-12-18T17:49:33;101834.75;;;-3.36;75.37
64644;BME280;51056;50.330;7.914;2022-12-18T17:52:37;101841.91;;;-3.56;76.76
64644;BME280;51056;50.330;7.914;2022-12-18T17:55:52;101848.22;;;-3.43;75.96
64644;BME280;51056;50.330;7.914;2022-12-18T17:58:56;101850.25;;;-3.30;75.93
64644;BME280;51056;50.330;7.914;2022-12-18T18:01:59;101853.41;;;-3.40;75.66
64644;BME280;51056;50.330;7.914;2022-12-18T18:05:03;101851.69;;;-3.41;76.00
64644;BME280;51056;50.330;7.914;2022-12-18T18:08:07;101846.28;;;-3.19;74.93
64644;BME280;51056;50.330;7.914;2022-12-18T18:11:13;101847.94;;;-3.19;75.28
64644;BME280;51056;50.330;7.914;2022-12-18T18:14:35;101836.16;;;-3.14;75.57
64644;BME280;51056;50.330;7.914;2022-12-18T18:17:40;101825.22;;;-3.09;75.33
64644;BME280;51056;50.330;7.914;2022-12-18T18:20:47;101821.59;;;-3.17;74.98
64644;BME280;51056;50.330;7.914;2022-12-18T18:23:51;101823.25;;;-3.19;74.91
64644;BME280;51056;50.330;7.914;2022-12-18T18:26:54;101821.75;;;-3.11;74.92
64644;BME280;51056;50.330;7.914;2022-12-18T18:30:04;101830.94;;;-3.19;75.46
64644;BME280;51056;50.330;7.914;2022-12-18T18:36:34;101808.84;;;-3.15;75.55
64644;BME280;51056;50.330;7.914;2022-12-18T18:39:58;101808.88;;;-3.14;75.25
64644;BME280;51056;50.330;7.914;2022-12-18T18:43:09;101800.34;;;-3.13;75.22
64644;BME280;51056;50.330;7.914;2022-12-18T18:46:18;101787.56;;;-3.13;75.58
64644;BME280;51056;50.330;7.914;2022-12-18T18:50:29;101782.53;;;-3.10;75.34
64644;BME280;51056;50.330;7.914;2022-12-18T18:53:52;101767.31;;;-3.04;74.75
64644;BME280;51056;50.330;7.914;2022-12-18T18:56:56;101764.03;;;-2.99;75.03
64644;BME280;51056;50.330;7.914;2022-12-18T19:00:00;101767.19;;;-3.10;75.66
64644;BME280;51056;50.330;7.914;2022-12-18T19:03:04;101764.69;;;-3.07;75.46
64644;BME280;51056;50.330;7.914;2022-12-18T19:06:13;101762.06;;;-3.10;75.43
64644;BME280;51056;50.330;7.914;2022-12-18T19:09:17;101762.19;;;-3.04;75.21
64644;BME280;51056;50.330;7.914;2022-12-18T19:12:20;101756.19;;;-3.06;75.71
64644;BME280;51056;50.330;7.914;2022-12-18T19:15:42;101763.13;;;-3.00;75.39
64644;BME280;51056;50.330;7.914;2022-12-18T19:18:48;101754.56;;;-3.02;75.73
64644;BME280;51056;50.330;7.914;2022-12-18T19:21:52;101761.72;;;-2.87;75.42
64644;BME280;51056;50.330;7.914;2022-12-18T19:25:01;101755.00;;;-2.84;75.39
64644;BME280;51056;50.330;7.914;2022-12-18T19:28:05;101760.06;;;-2.87;75.52
64644;BME280;51056;50.330;7.914;2022-12-18T19:31:21;101752.09;;;-2.99;75.97
64644;BME280;51056;50.330;7.914;2022-12-18T19:38:01;101741.25;;;-2.87;75.31
64644;BME280;51056;50.330;7.914;2022-12-18T19:41:06;101730.16;;;-2.88;75.33
64644;BME280;51056;50.330;7.914;2022-12-18T19:44:14;101746.84;;;-3.04;76.19
64644;BME280;51056;50.330;7.914;2022-12-18T19:47:18;101749.06;;;-2.81;75.65
64644;BME280;51056;50.330;7.914;2022-12-18T19:50:22;101731.78;;;-2.91;75.76
64644;BME280;51056;50.330;7.914;2022-12-18T19:53:25;101738.44;;;-2.99;76.30
64644;BME280;51056;50.330;7.914;2022-12-18T19:56:32;101731.84;;;-2.88;76.36
64644;BME280;51056;50.330;7.914;2022-12-18T19:59:36;101747.28;;;-2.85;76.11
64644;BME280;51056;50.330;7.914;2022-12-18T20:02:40;101751.63;;;-2.81;76.63
64644;BME280;51056;50.330;7.914;2022-12-18T20:05:43;101755.66;;;-2.92;76.23
64644;BME280;51056;50.330;7.914;2022-12-18T20:08:46;101753.19;;;-2.88;76.52
64644;BME280;51056;50.330;7.914;2022-12-18T20:11:50;101757.50;;;-2.85;76.81
64644;BME280;51056;50.330;7.914;2022-12-18T20:14:54;101757.56;;;-2.82;76.60
64644;BME280;51056;50.330;7.914;2022-12-18T20:17:57;101749.59;;;-2.96;77.54
64644;BME280;51056;50.330;7.914;2022-12-18T20:21:01;101743.78;;;-2.89;77.21
64644;BME280;51056;50.330;7.914;2022-12-18T20:24:06;101748.41;;;-2.72;76.91
64644;BME280;51056;50.330;7.914;2022-12-18T20:27:12;101754.44;;;-2.70;76.47
64644;BME280;51056;50.330;7.914;2022-12-18T20:30:16;101733.19;;;-2.66;76.46
64644;BME280;51056;50.330;7.914;2022-12-18T20:33:19;101724.59;;;-2.68;75.90
64644;BME280;51056;50.330;7.914;2022-12-18T20:36:22;101715.09;;;-2.74;76.62
64644;BME280;51056;50.330;7.914;2022-12-18T20:39:26;101713.34;;;-2.76;76.79
64644;BME280;51056;50.330;7.914;2022-12-18T20:42:29;101720.34;;;-2.68;76.99
64644;BME280;51056;50.330;7.914;2022-12-18T20:45:32;101721.22;;;-2.66;76.40
64644;BME280;51056;50.330;7.914;2022-12-18T20:48:36;101734.16;;;-2.60;76.77
64644;BME280;51056;50.330;7.914;2022-12-18T20:51:41;101734.66;;;-2.77;77.67
64644;BME280;51056;50.330;7.914;2022-12-18T20:54:47;101730.03;;;-2.53;76.76
64644;BME280;51056;50.330;7.914;2022-12-18T20:57:51;101735.34;;;-2.45;76.57
64644;BME280;51056;50.330;7.914;2022-12-18T21:01:05;101737.59;;;-2.98;78.88
64644;BME280;51056;50.330;7.914;2022-12-18T21:04:09;101737.16;;;-2.79;79.00
64644;BME280;51056;50.330;7.914;2022-12-18T21:07:12;101736.47;;;-2.72;78.18
64644;BME280;51056;50.330;7.914;2022-12-18T21:10:16;101740.78;;;-2.71;78.19
64644;BME280;51056;50.330;7.914;2022-12-18T21:13:19;101733.31;;;-2.59;77.83
64644;BME280;51056;50.330;7.914;2022-12-18T21:16:23;101736.78;;;-2.58;77.81
64644;BME280;51056;50.330;7.914;2022-12-18T21:19:27;101732.66;;;-2.51;77.25
64644;BME280;51056;50.330;7.914;2022-12-18T21:22:31;101728.91;;;-2.66;78.15
64644;BME280;51056;50.330;7.914;2022-12-18T21:25:34;101723.78;;;-2.66;78.76
64644;BME280;51056;50.330;7.914;2022-12-18T21:28:38;101729.75;;;-2.67;78.90
64644;BME280;51056;50.330;7.914;2022-12-18T21:31:43;101731.75;;;-2.53;77.71
64644;BME280;51056;50.330;7.914;2022-12-18T21:34:47;101736.53;;;-2.69;78.67
64644;BME280;51056;50.330;7.914;2022-12-18T21:37:50;101734.88;;;-2.67;78.69
64644;BME280;51056;50.330;7.914;2022-12-18T21:40:56;101741.97;;;-2.55;78.26
64644;BME280;51056;50.330;7.914;2022-12-18T21:44:00;101736.16;;;-2.46;78.10
64644;BME280;51056;50.330;7.914;2022-12-18T21:47:10;101732.00;;;-2.41;77.36
64644;BME280;51056;50.330;7.914;2022-12-18T21:50:15;101731.16;;;-2.40;77.82
64644;BME280;51056;50.330;7.914;2022-12-18T21:53:19;101725.63;;;-2.60;78.81
64644;BME280;51056;50.330;7.914;2022-12-18T21:56:22;101727.31;;;-2.61;78.27
64644;BME280;51056;50.330;7.914;2022-12-18T22:02:37;101735.41;;;-2.42;77.87
64644;BME280;51056;50.330;7.914;2022-12-18T22:05:40;101732.13;;;-2.35;77.89
64644;BME280;51056;50.330;7.914;2022-12-18T22:08:45;101732.00;;;-2.40;77.93
64644;BME280;51056;50.330;7.914;2022-12-18T22:11:49;101738.88;;;-2.39;78.00
64644;BME280;51056;50.330;7.914;2022-12-18T22:14:53;101734.09;;;-2.63;79.23
64644;BME280;51056;50.330;7.914;2022-12-18T22:17:58;101729.25;;;-2.50;79.13
64644;BME280;51056;50.330;7.914;2022-12-18T22:21:03;101722.00;;;-2.27;78.59
64644;BME280;51056;50.330;7.914;2022-12-18T22:24:24;101721.22;;;-2.25;78.09
64644;BME280;51056;50.330;7.914;2022-12-18T22:27:28;101708.38;;;-2.26;77.96
64644;BME280;51056;50.330;7.914;2022-12-18T22:30:31;101710.09;;;-2.25;77.94
64644;BME280;51056;50.330;7.914;2022-12-18T22:33:34;101706.75;;;-2.23;78.04
64644;BME280;51056;50.330;7.914;2022-12-18T22:36:41;101695.59;;;-2.25;78.31
64644;BME280;51056;50.330;7.914;2022-12-18T22:39:44;101705.59;;;-2.37;78.91
64644;BME280;51056;50.330;7.914;2022-12-18T22:42:47;101702.03;;;-2.45;79.52
64644;BME280;51056;50.330;7.914;2022-12-18T22:45:51;101701.06;;;-2.50;78.97
64644;BME280;51056;50.330;7.914;2022-12-18T22:48:54;101695.16;;;-2.46;79.42
64644;BME280;51056;50.330;7.914;2022-12-18T22:52:00;101696.88;;;-2.47;79.29
64644;BME280;51056;50.330;7.914;2022-12-18T22:55:04;101697.03;;;-2.39;79.33
64644;BME280;51056;50.330;7.914;2022-12-18T22:58:08;101699.50;;;-2.44;80.07
64644;BME280;51056;50.330;7.914;2022-12-18T23:01:18;101693.00;;;-2.26;78.78
64644;BME280;51056;50.330;7.914;2022-12-18T23:04:22;101691.53;;;-2.14;78.03
64644;BME280;51056;50.330;7.914;2022-12-18T23:07:25;101685.56;;;-2.13;78.56
64644;BME280;51056;50.330;7.914;2022-12-18T23:10:30;101685.56;;;-2.13;78.37
64644;BME280;51056;50.330;7.914;2022-12-18T23:13:34;101685.41;;;-2.22;79.42
64644;BME280;51056;50.330;7.914;2022-12-18T23:16:38;101677.47;;;-2.34;79.25
64644;BME280;51056;50.330;7.914;2022-12-18T23:19:43;101672.81;;;-2.08;78.65
64644;BME280;51056;50.330;7.914;2022-12-18T23:22:47;101665.19;;;-2.06;78.92
64644;BME280;51056;50.330;7.914;2022-12-18T23:25:59;101666.78;;;-2.12;78.89
64644;BME280;51056;50.330;7.914;2022-12-18T23:29:03;101666.72;;;-2.15;79.22
64644;BME280;51056;50.330;7.914;2022-12-18T23:32:07;101658.75;;;-2.31;80.13
64644;BME280;51056;50.330;7.914;2022-12-18T23:35:10;101658.22;;;-2.14;80.22
64644;BME280;51056;50.330;7.914;2022-12-18T23:38:13;101660.13;;;-2.03;79.56
64644;BME280;51056;50.330;7.914;2022-12-18T23:41:18;101650.72;;;-2.03;79.47
64644;BME280;51056;50.330;7.914;2022-12-18T23:44:21;101647.31;;;-2.03;79.45
64644;BME280;51056;50.330;7.914;2022-12-18T23:47:25;101651.56;;;-2.02;79.75
64644;BME280;51056;50.330;7.914;2022-12-18T23:50:28;101653.16;;;-2.11;80.17
64644;BME280;51056;50.330;7.914;2022-12-18T23:53:32;101667.00;;;-1.99;80.02
64644;BME280;51056;50.330;7.914;2022-12-18T23:56:35;101667.25;;;-1.85;79.84
64644;BME280;51056;50.330;7.914;2022-12-18T23:59:39;101659.59;;;-1.84;79.13
